Time;durP1;ratioP1;P1;durP2;ratioP2;P2;SDS_P1;SDS_P2;PMS_P1;PMS_P2;Temp;Humidity;BMP_temperature;BMP_pressure;BME280_temperature;BME280_humidity;BME280_pressure;Samples;Min_cycle;Max_cycle;Signal;HPM_P1;HPM_P2
2022/06/23 00:00:28;;;;;;;19.95;15.07;;;18.40;99.90;;;;;;5091682;28;20028;-54
2022/06/23 00:02:55;;;;;;;;;;;18.50;99.90;;;;;;5093569;28;20177;-55
2022/06/23 00:05:24;;;;;;;28.13;17.05;;;18.40;99.90;;;;;;5093011;28;19978;-54
2022/06/23 00:07:57;;;;;;;27.70;16.08;;;18.30;99.90;;;;;;5091725;28;20016;-54
2022/06/23 00:10:47;;;;;;;39.42;18.02;;;18.30;99.90;;;;;;5092975;28;20023;-55
2022/06/23 00:13:25;;;;;;;20.15;16.00;;;18.30;99.90;;;;;;5092902;28;20031;-54
2022/06/23 00:15:54;;;;;;;34.78;17.70;;;18.20;99.90;;;;;;5092702;28;20541;-53
2022/06/23 00:18:32;;;;;;;22.60;16.08;;;18.20;99.90;;;;;;5092778;28;20024;-55
2022/06/23 00:21:02;;;;;;;21.48;15.50;;;18.30;99.90;;;;;;5092851;28;20398;-55
2022/06/23 00:23:38;;;;;;;33.50;17.40;;;18.30;99.90;;;;;;5092234;28;20020;-55
2022/06/23 00:26:12;;;;;;;26.33;15.80;;;18.20;99.90;;;;;;5091632;28;20024;-53
2022/06/23 00:29:00;;;;;;;27.58;17.52;;;18.20;99.90;;;;;;5091849;28;20024;-55
2022/06/23 00:31:26;;;;;;;26.15;17.40;;;18.20;99.90;;;;;;5092441;28;20113;-53
2022/06/23 00:33:53;;;;;;;28.20;19.75;;;18.20;99.90;;;;;;5092680;28;20400;-53
2022/06/23 00:36:36;;;;;;;31.80;17.30;;;18.20;99.90;;;;;;5092418;28;20143;-54
2022/06/23 00:39:05;;;;;;;23.08;17.25;;;18.20;99.90;;;;;;5092481;28;20020;-54
2022/06/23 00:41:36;;;;;;;22.25;15.55;;;18.20;99.90;;;;;;5092488;28;20104;-53
2022/06/23 00:44:13;;;;;;;29.27;16.50;;;18.20;99.90;;;;;;5091084;28;20027;-54
2022/06/23 00:46:48;;;;;;;36.72;17.52;;;18.20;99.90;;;;;;5092139;28;20553;-53
2022/06/23 00:49:22;;;;;;;22.65;16.77;;;18.30;99.90;;;;;;5092162;28;20020;-54
2022/06/23 00:51:59;;;;;;;24.88;17.10;;;18.30;99.90;;;;;;5092614;28;20016;-51
2022/06/23 00:54:36;;;;;;;31.13;17.80;;;18.20;99.90;;;;;;5091879;28;20043;-53
2022/06/23 00:57:05;;;;;;;34.15;18.15;;;18.30;99.90;;;;;;5092362;28;20020;-56
2022/06/23 00:59:51;;;;;;;27.83;18.88;;;18.30;99.90;;;;;;5091786;28;20020;-53
2022/06/23 01:02:33;;;;;;;31.58;19.20;;;18.30;99.90;;;;;;5091768;28;20396;-54
2022/06/23 01:05:01;;;;;;;47.20;19.08;;;18.30;99.90;;;;;;5092120;28;20542;-55
2022/06/23 01:07:49;;;;;;;34.53;18.85;;;18.30;99.90;;;;;;5090674;28;20024;-54
2022/06/23 01:10:43;;;;;;;31.63;18.08;;;18.30;99.90;;;;;;5091974;28;20028;-54
2022/06/23 01:13:14;;;;;;;;;;;18.30;99.90;;;;;;5092386;28;20054;-55
2022/06/23 01:15:49;;;;;;;33.40;19.40;;;18.30;99.90;;;;;;5091742;28;19914;-55
2022/06/23 01:18:24;;;;;;;37.97;21.13;;;18.30;99.90;;;;;;5091856;28;20016;-55
2022/06/23 01:21:07;;;;;;;26.05;17.50;;;18.30;99.90;;;;;;5091971;28;20015;-55
2022/06/23 01:23:45;;;;;;;22.65;17.00;;;18.30;99.90;;;;;;5091826;28;20022;-54
2022/06/23 01:26:29;;;;;;;28.80;19.27;;;18.40;99.90;;;;;;5091864;28;20085;-54
2022/06/23 01:29:04;;;;;;;32.30;18.35;;;18.40;99.90;;;;;;5091460;28;20055;-54
2022/06/23 01:31:42;;;;;;;22.77;17.45;;;18.30;99.90;;;;;;5091714;28;20035;-53
2022/06/23 01:34:54;;;;;;;37.75;19.27;;;18.30;99.90;;;;;;5091778;28;20480;-54
2022/06/23 01:37:22;;;;;;;24.15;18.83;;;18.30;99.90;;;;;;5090261;28;20558;-51
2022/06/23 01:40:01;;;;;;;41.25;19.80;;;18.30;99.90;;;;;;5094152;28;20101;-56
2022/06/23 01:42:46;;;;;;;29.73;20.85;;;18.30;99.90;;;;;;5094387;28;20131;-54
2022/06/23 01:45:17;;;;;;;30.85;19.13;;;18.30;99.90;;;;;;5094418;28;20028;-52
2022/06/23 01:47:57;;;;;;;34.15;18.67;;;18.30;99.90;;;;;;5095760;28;20019;-55
2022/06/23 01:50:36;;;;;;;24.88;18.52;;;18.30;99.90;;;;;;5095766;28;20031;-52
2022/06/23 01:53:21;;;;;;;22.30;19.55;;;18.30;99.90;;;;;;5095813;28;20024;-52
2022/06/23 01:56:08;;;;;;;25.20;19.35;;;18.30;99.90;;;;;;5095596;28;20026;-52
2022/06/23 01:58:48;;;;;;;31.38;17.70;;;18.40;99.90;;;;;;5095697;28;20107;-51
2022/06/23 02:01:34;;;;;;;34.42;17.65;;;18.50;99.90;;;;;;5095362;28;20031;-55
2022/06/23 02:04:14;;;;;;;31.77;18.45;;;18.50;99.90;;;;;;5095652;28;20493;-54
2022/06/23 02:06:54;;;;;;;29.42;19.98;;;18.40;99.90;;;;;;5094033;28;20043;-53
2022/06/23 02:09:41;;;;;;;32.33;20.00;;;18.40;99.90;;;;;;5095025;28;20020;-55
2022/06/23 02:12:21;;;;;;;34.05;19.45;;;18.30;99.90;;;;;;5094575;28;20032;-54
2022/06/23 02:15:04;;;;;;;24.42;20.23;;;18.40;99.90;;;;;;5095121;28;20437;-55
2022/06/23 02:17:48;;;;;;;30.65;20.10;;;18.30;99.90;;;;;;5093600;28;20032;-56
2022/06/23 02:20:40;;;;;;;24.58;20.40;;;18.30;99.90;;;;;;5095107;28;20475;-55
2022/06/23 02:23:34;;;;;;;29.33;19.25;;;18.30;99.90;;;;;;5095244;28;20111;-55
2022/06/23 02:26:13;;;;;;;;;;;18.30;99.90;;;;;;5095612;28;20111;-55
2022/06/23 02:29:23;;;;;;;27.73;17.35;;;18.30;99.90;;;;;;5094975;28;19996;-52
2022/06/23 02:31:49;;;;;;;26.23;19.10;;;18.50;99.90;;;;;;5092401;28;20047;-54
2022/06/23 02:34:22;;;;;;;31.08;19.23;;;18.50;99.90;;;;;;5075186;28;20032;-54
2022/06/23 02:37:26;;;;;;;31.52;19.75;;;18.40;99.90;;;;;;5083224;28;20429;-55
2022/06/23 02:39:55;;;;;;;22.70;16.38;;;18.40;99.90;;;;;;5094440;28;20040;-54
2022/06/23 02:42:28;;;;;;;28.58;18.77;;;18.40;99.90;;;;;;5094597;28;20039;-56
2022/06/23 02:45:12;;;;;;;24.67;20.27;;;18.30;99.90;;;;;;5093373;28;20016;-55
2022/06/23 02:48:09;;;;;;;22.75;18.75;;;18.40;99.90;;;;;;5094784;28;20500;-53
2022/06/23 02:50:40;;;;;;;31.75;20.67;;;18.40;99.90;;;;;;5091328;28;20587;-55
2022/06/23 02:53:28;;;;;;;21.73;18.67;;;18.40;99.90;;;;;;5094809;28;20024;-53
2022/06/23 02:55:53;;;;;;;25.25;17.70;;;18.30;99.90;;;;;;5094406;28;20024;-54
2022/06/23 02:58:32;;;;;;;22.90;17.67;;;18.40;99.90;;;;;;5094312;28;20352;-54
2022/06/23 03:01:05;;;;;;;25.58;16.95;;;18.40;99.90;;;;;;5094460;28;20016;-56
2022/06/23 03:04:00;;;;;;;25.53;17.00;;;18.40;99.90;;;;;;5094437;28;20340;-54
2022/06/23 03:06:26;;;;;;;25.42;13.98;;;18.30;99.90;;;;;;5094302;28;20043;-55
2022/06/23 03:09:09;;;;;;;22.00;13.43;;;18.40;99.90;;;;;;5094192;28;20391;-55
2022/06/23 03:11:54;;;;;;;15.23;8.48;;;18.40;99.90;;;;;;5094228;28;20111;-56
2022/06/23 03:14:34;;;;;;;19.90;9.73;;;18.40;99.90;;;;;;5094029;28;20043;-54
2022/06/23 03:17:19;;;;;;;23.65;10.55;;;18.30;99.90;;;;;;5094156;28;20031;-56
2022/06/23 03:19:54;;;;;;;23.20;12.05;;;18.20;99.90;;;;;;5094095;28;20122;-54
2022/06/23 03:22:34;;;;;;;17.90;11.40;;;18.20;99.90;;;;;;5094074;28;20028;-53
2022/06/23 03:25:06;;;;;;;15.85;12.70;;;18.10;99.90;;;;;;5093947;28;20032;-56
2022/06/23 03:27:43;;;;;;;32.35;13.55;;;18.10;99.90;;;;;;5093870;28;20031;-54
2022/06/23 03:30:21;;;;;;;24.92;12.05;;;18.20;99.90;;;;;;5093802;28;20587;-54
2022/06/23 03:32:51;;;;;;;21.27;12.27;;;18.20;99.90;;;;;;5093667;28;20035;-54
2022/06/23 03:35:19;;;;;;;20.02;10.95;;;18.20;99.90;;;;;;5093567;28;20035;-55
2022/06/23 03:41:36;;;;;;;18.13;10.65;;;18.20;99.90;;;;;;5093152;28;20047;-53
2022/06/23 03:41:36;;;;;;;22.42;12.35;;;18.20;99.90;;;;;;5093403;28;20024;-55
2022/06/23 03:44:11;;;;;;;15.48;9.77;;;18.20;99.90;;;;;;5093540;28;20574;-56
2022/06/23 03:46:44;;;;;;;28.02;11.38;;;18.30;99.90;;;;;;5093565;28;20126;-53
2022/06/23 03:49:28;;;;;;;22.75;10.40;;;18.30;99.90;;;;;;5093195;28;20070;-54
2022/06/23 03:51:59;;;;;;;16.52;9.70;;;18.20;99.90;;;;;;5093422;28;20115;-55
2022/06/23 03:54:37;;;;;;;20.33;10.02;;;18.30;99.90;;;;;;5093277;28;20030;-53
2022/06/23 03:57:12;;;;;;;16.98;9.30;;;18.30;99.90;;;;;;5093360;28;20383;-55
2022/06/23 04:00:02;;;;;;;22.75;10.93;;;18.40;99.90;;;;;;5093319;28;20082;-54
2022/06/23 04:02:37;;;;;;;23.42;10.30;;;18.40;99.90;;;;;;5092760;28;20031;-55
2022/06/23 04:05:20;;;;;;;19.02;10.95;;;18.40;99.90;;;;;;5092979;28;20029;-55
2022/06/23 04:07:55;;;;;;;29.05;10.45;;;18.50;99.90;;;;;;5093037;28;20024;-55
2022/06/23 04:10:28;;;;;;;21.13;10.35;;;18.50;99.90;;;;;;5092972;28;20100;-53
2022/06/23 04:13:00;;;;;;;20.85;11.20;;;18.50;99.90;;;;;;5093058;28;20108;-55
2022/06/23 04:15:34;;;;;;;17.58;9.43;;;18.50;99.90;;;;;;5092558;28;20036;-53
2022/06/23 04:18:31;;;;;;;14.60;9.98;;;18.50;99.90;;;;;;5093048;28;20034;-54
2022/06/23 04:21:02;;;;;;;13.52;8.63;;;18.60;99.90;;;;;;5087907;28;20040;-55
2022/06/23 04:23:35;;;;;;;19.83;10.15;;;18.60;99.90;;;;;;5091413;28;20101;-54
2022/06/23 04:26:06;;;;;;;17.83;10.68;;;18.50;99.90;;;;;;5092784;28;20035;-55
2022/06/23 04:28:55;;;;;;;22.40;10.65;;;18.50;99.90;;;;;;5092802;28;20050;-54
2022/06/23 04:31:34;;;;;;;19.10;9.07;;;18.60;99.90;;;;;;5092538;28;20008;-54
2022/06/23 04:34:01;;;;;;;18.50;9.52;;;18.60;99.90;;;;;;5091212;28;20020;-55
2022/06/23 04:36:34;;;;;;;19.27;10.15;;;18.60;99.90;;;;;;5092400;28;20054;-54
2022/06/23 04:39:19;;;;;;;19.83;10.38;;;18.60;99.90;;;;;;5092416;28;20020;-56
2022/06/23 04:41:50;;;;;;;19.92;11.25;;;18.60;99.90;;;;;;5092267;28;20032;-55
2022/06/23 04:44:27;;;;;;;20.17;12.18;;;18.70;99.90;;;;;;5092264;28;20073;-53
2022/06/23 04:47:05;;;;;;;21.10;12.15;;;18.70;99.90;;;;;;5092484;28;20024;-56
2022/06/23 04:49:47;;;;;;;24.88;12.27;;;18.70;99.90;;;;;;5092067;28;20432;-55
2022/06/23 04:52:23;;;;;;;16.00;11.38;;;18.80;99.90;;;;;;5092085;28;20124;-55
2022/06/23 04:54:56;;;;;;;18.23;11.07;;;18.90;99.90;;;;;;5092157;28;20024;-54
2022/06/23 04:57:27;;;;;;;24.27;12.23;;;18.90;99.90;;;;;;5091405;28;20026;-55
2022/06/23 04:59:56;;;;;;;17.98;12.40;;;18.90;99.90;;;;;;5092056;28;20102;-55
2022/06/23 05:02:29;;;;;;;21.30;12.02;;;18.90;99.90;;;;;;5091888;28;20459;-56
2022/06/23 05:05:07;;;;;;;20.95;13.05;;;18.90;99.90;;;;;;5090443;28;20024;-56
2022/06/23 05:07:59;;;;;;;20.52;12.32;;;18.90;99.90;;;;;;5091948;28;20039;-54
2022/06/23 05:10:31;;;;;;;24.15;13.50;;;18.90;99.90;;;;;;5091936;28;20031;-51
2022/06/23 05:13:09;;;;;;;20.08;13.52;;;18.80;99.90;;;;;;5092107;28;20062;-53
2022/06/23 05:15:43;;;;;;;24.25;14.35;;;18.70;99.90;;;;;;5091026;28;20020;-53
2022/06/23 05:18:13;;;;;;;25.65;13.30;;;18.80;99.90;;;;;;5091727;28;20028;-55
2022/06/23 05:20:44;;;;;;;17.75;12.10;;;18.90;99.90;;;;;;5091631;28;20543;-54
2022/06/23 05:23:20;;;;;;;21.70;12.18;;;19.00;99.90;;;;;;5091702;28;20028;-54
2022/06/23 05:25:53;;;;;;;21.45;12.52;;;19.10;99.90;;;;;;5091669;28;20020;-54
2022/06/23 05:28:25;;;;;;;18.90;12.82;;;19.20;99.90;;;;;;5091786;28;20052;-57
2022/06/23 05:30:55;;;;;;;20.15;12.70;;;19.20;99.90;;;;;;5091833;28;20056;-57
2022/06/23 05:33:28;;;;;;;16.45;12.68;;;19.30;99.90;;;;;;5091714;28;20025;-54
2022/06/23 05:36:05;;;;;;;16.05;11.25;;;19.40;99.90;;;;;;5091572;28;20139;-54
2022/06/23 05:38:55;;;;;;;15.45;10.38;;;19.50;99.90;;;;;;5091402;28;20034;-53
2022/06/23 05:41:46;;;;;;;22.27;10.85;;;19.60;99.90;;;;;;5091248;28;20037;-54
2022/06/23 05:44:31;;;;;;;16.25;10.55;;;19.60;99.90;;;;;;5091156;28;20028;-54
2022/06/23 05:47:00;;;;;;;17.83;10.45;;;19.60;99.90;;;;;;5091486;28;20026;-54
2022/06/23 05:49:32;;;;;;;19.13;10.23;;;19.60;99.90;;;;;;5090982;28;20104;-55
2022/06/23 05:52:04;;;;;;;15.15;9.50;;;19.70;99.90;;;;;;5091289;28;20065;-55
2022/06/23 05:54:54;;;;;;;17.45;8.90;;;19.80;99.90;;;;;;5091313;28;20065;-55
2022/06/23 05:57:29;;;;;;;14.45;9.30;;;19.80;99.90;;;;;;5091545;28;20016;-54
2022/06/23 06:00:14;;;;;;;12.55;8.57;;;19.80;99.90;;;;;;5091480;28;20061;-54
2022/06/23 06:02:51;;;;;;;16.08;8.93;;;19.90;99.90;;;;;;5091348;28;20021;-55
2022/06/23 06:05:51;;;;;;;11.00;7.18;;;20.00;99.90;;;;;;5091227;28;20028;-56
2022/06/23 06:08:21;;;;;;;13.02;6.95;;;20.10;99.90;;;;;;5091580;28;20030;-55
2022/06/23 06:10:49;;;;;;;10.98;6.82;;;20.30;99.90;;;;;;5091356;28;20032;-55
2022/06/23 06:13:21;;;;;;;8.52;5.88;;;20.30;99.90;;;;;;5091228;28;20028;-55
2022/06/23 06:15:52;;;;;;;11.20;6.28;;;20.50;99.90;;;;;;5091053;28;20107;-54
2022/06/23 06:18:32;;;;;;;15.82;6.70;;;20.30;99.90;;;;;;5091221;28;20099;-54
2022/06/23 06:21:02;;;;;;;14.75;7.28;;;20.20;99.90;;;;;;5091450;28;20108;-55
2022/06/23 06:24:17;;;;;;;8.98;5.75;;;20.30;99.90;;;;;;5091157;28;20032;-55
2022/06/23 06:26:46;;;;;;;10.95;5.97;;;20.30;99.90;;;;;;5070444;28;20538;-55
2022/06/23 06:29:17;;;;;;;8.85;6.18;;;20.50;99.90;;;;;;5090581;28;20040;-53
2022/06/23 06:31:46;;;;;;;13.07;5.82;;;20.70;99.90;;;;;;5094907;28;20028;-55
2022/06/23 06:34:34;;;;;;;14.82;5.72;;;20.80;99.90;;;;;;5094988;28;20016;-56
2022/06/23 06:37:00;;;;;;;14.60;5.10;;;21.10;99.90;;;;;;5093721;28;20585;-55
2022/06/23 06:39:49;;;;;;;14.88;6.22;;;21.20;99.90;;;;;;5094559;28;20073;-55
2022/06/23 06:42:19;;;;;;;8.32;4.97;;;21.00;99.90;;;;;;5087836;28;20119;-54
2022/06/23 06:44:48;;;;;;;10.68;6.03;;;21.20;99.90;;;;;;5094189;28;20028;-55
2022/06/23 06:47:30;;;;;;;13.25;5.22;;;21.40;99.90;;;;;;5093051;28;20460;-54
2022/06/23 06:50:00;;;;;;;9.75;4.80;;;21.40;99.90;;;;;;5094880;28;20601;-55
2022/06/23 06:52:27;;;;;;;9.77;5.38;;;21.40;99.90;;;;;;5094547;28;20077;-55
2022/06/23 06:55:00;;;;;;;12.20;5.05;;;21.50;99.90;;;;;;5094464;28;20115;-55
2022/06/23 06:57:36;;;;;;;13.93;6.20;;;21.30;99.90;;;;;;5094379;28;20778;-54
2022/06/23 07:00:07;;;;;;;11.65;5.13;;;21.50;99.90;;;;;;5093201;28;20016;-54
2022/06/23 07:02:46;;;;;;;12.23;5.10;;;21.00;99.90;;;;;;5094382;28;20099;-55
2022/06/23 07:05:18;;;;;;;8.07;5.07;;;21.30;99.90;;;;;;5093130;28;20077;-53
2022/06/23 07:07:51;;;;;;;15.93;5.22;;;21.50;99.90;;;;;;5094161;28;20020;-55
2022/06/23 07:10:31;;;;;;;11.10;4.90;;;21.60;99.90;;;;;;5093952;28;20027;-54
2022/06/23 07:13:01;;;;;;;10.63;5.05;;;21.50;99.90;;;;;;5094130;28;20032;-54
2022/06/23 07:15:35;;;;;;;10.77;4.80;;;21.20;99.90;;;;;;5094065;28;20034;-54
2022/06/23 07:18:33;;;;;;;10.90;5.43;;;21.50;99.90;;;;;;5093834;28;20016;-55
2022/06/23 07:20:59;;;;;;;13.00;4.72;;;21.70;99.90;;;;;;5092122;28;20464;-53
2022/06/23 07:23:33;;;;;;;12.80;5.20;;;21.70;99.90;;;;;;5094210;28;20107;-54
2022/06/23 07:26:27;;;;;;;9.43;5.18;;;21.80;99.90;;;;;;5094058;28;20022;-53
2022/06/23 07:28:55;;;;;;;;;;;21.70;99.90;;;;;;5094011;28;20024;-53
2022/06/23 07:31:36;;;;;;;12.02;4.75;;;21.90;99.90;;;;;;5093679;28;20065;-53
2022/06/23 07:34:08;;;;;;;12.48;5.03;;;22.10;99.90;;;;;;5093713;28;20020;-55
2022/06/23 07:36:43;;;;;;;13.40;5.53;;;22.10;99.90;;;;;;5093370;28;20024;-56
2022/06/23 07:39:18;;;;;;;11.18;4.75;;;22.40;99.90;;;;;;5093351;28;20674;-55
2022/06/23 07:42:00;;;;;;;21.33;8.90;;;22.60;99.90;;;;;;5093631;28;20520;-52
2022/06/23 07:44:43;;;;;;;11.77;5.57;;;22.50;99.90;;;;;;5093331;28;20028;-55
2022/06/23 07:47:09;;;;;;;13.32;5.90;;;22.60;99.90;;;;;;5092168;28;20467;-56
2022/06/23 07:49:35;;;;;;;11.60;5.10;;;22.60;99.90;;;;;;5093395;28;20032;-57
2022/06/23 07:52:02;;;;;;;12.68;4.60;;;22.40;99.90;;;;;;5093554;28;20035;-53
2022/06/23 07:54:30;;;;;;;8.07;5.18;;;22.60;99.90;;;;;;5093286;28;20023;-51
2022/06/23 07:56:56;;;;;;;14.27;5.03;;;22.90;99.90;;;;;;5093573;28;20043;-57
2022/06/23 07:59:28;;;;;;;8.77;4.72;;;22.80;99.90;;;;;;5092980;28;20375;-57
2022/06/23 08:02:06;;;;;;;11.50;4.90;;;23.10;99.90;;;;;;5093425;28;20103;-55
2022/06/23 08:04:56;;;;;;;8.90;4.68;;;23.40;99.90;;;;;;5093200;28;20323;-53
2022/06/23 08:07:23;;;;;;;9.13;4.88;;;23.30;99.90;;;;;;5093402;28;20051;-55
2022/06/23 08:10:00;;;;;;;21.48;5.82;;;23.40;99.90;;;;;;5091976;28;20031;-56
2022/06/23 08:12:58;;;;;;;8.82;4.75;;;23.40;99.90;;;;;;5091578;28;20023;-55
2022/06/23 08:19:04;;;;;;;13.55;6.63;;;23.30;99.90;;;;;;5092072;28;20047;-56
2022/06/23 08:21:37;;;;;;;6.95;4.55;;;23.00;99.90;;;;;;5091588;28;20020;-56
2022/06/23 08:24:08;;;;;;;15.80;4.82;;;23.50;99.90;;;;;;5091720;28;20032;-55
2022/06/23 08:26:39;;;;;;;15.82;8.50;;;23.60;99.90;;;;;;5090270;28;20558;-56
2022/06/23 08:29:10;;;;;;;13.80;6.43;;;23.30;99.90;;;;;;5091411;28;20027;-56
2022/06/23 08:31:37;;;;;;;13.90;4.10;;;23.20;99.90;;;;;;5091521;28;20631;-55
2022/06/23 08:34:02;;;;;;;9.15;3.97;;;23.50;99.90;;;;;;5091520;28;20028;-54
2022/06/23 08:36:45;;;;;;;13.98;5.20;;;23.80;99.90;;;;;;5090989;28;20058;-55
2022/06/23 08:39:40;;;;;;;10.82;4.15;;;23.60;99.90;;;;;;5091114;28;20390;-55
2022/06/23 08:42:13;;;;;;;10.25;5.00;;;23.90;99.90;;;;;;5090999;28;20036;-54
2022/06/23 08:44:57;;;;;;;13.07;5.45;;;24.20;99.90;;;;;;5091355;28;20023;-52
2022/06/23 08:47:27;;;;;;;;;;;24.10;99.90;;;;;;5091599;28;20023;-55
2022/06/23 08:50:09;;;;;;;12.38;4.78;;;24.60;99.90;;;;;;5090543;28;19911;-55
2022/06/23 08:52:59;;;;;;;10.55;4.75;;;24.10;99.90;;;;;;5091215;28;20433;-55
2022/06/23 08:55:47;;;;;;;14.57;5.10;;;24.20;99.90;;;;;;5090894;28;20028;-55
2022/06/23 08:58:24;;;;;;;17.40;4.82;;;24.50;99.90;;;;;;5090776;28;20012;-55
2022/06/23 09:01:13;;;;;;;10.40;4.45;;;24.80;99.90;;;;;;5091029;28;20024;-56
2022/06/23 09:04:07;;;;;;;13.10;6.88;;;24.70;99.90;;;;;;5090965;28;20528;-56
2022/06/23 09:06:41;;;;;;;20.52;5.13;;;24.60;99.90;;;;;;5090775;28;20513;-55
2022/06/23 09:09:19;;;;;;;7.00;4.40;;;24.30;99.90;;;;;;5090954;28;20035;-55
2022/06/23 09:12:10;;;;;;;15.30;4.88;;;24.50;99.90;;;;;;5090752;28;20106;-55
2022/06/23 09:15:10;;;;;;;9.90;5.78;;;24.90;99.90;;;;;;5090839;28;20031;-54
2022/06/23 09:17:56;;;;;;;11.48;4.68;;;24.50;99.90;;;;;;5090840;28;20387;-55
2022/06/23 09:20:37;;;;;;;13.68;4.57;;;24.50;99.90;;;;;;5091162;28;20349;-55
2022/06/23 09:23:12;;;;;;;9.43;4.05;;;24.70;99.90;;;;;;5091818;28;20024;-54
2022/06/23 09:25:58;;;;;;;17.02;4.55;;;24.80;99.90;;;;;;5091789;28;20024;-55
2022/06/23 09:28:42;;;;;;;9.93;4.30;;;24.90;99.90;;;;;;5091647;28;20016;-55
2022/06/23 09:31:26;;;;;;;17.83;5.70;;;25.00;99.90;;;;;;5091656;28;20036;-54
2022/06/23 09:34:20;;;;;;;15.48;4.50;;;25.30;99.90;;;;;;5090409;28;20614;-55
2022/06/23 09:37:04;;;;;;;19.88;5.88;;;25.40;99.90;;;;;;5080661;28;20101;-56
2022/06/23 09:39:42;;;;;;;14.75;5.75;;;25.10;99.90;;;;;;5091257;28;20048;-54
2022/06/23 09:42:17;;;;;;;13.63;4.28;;;25.10;99.90;;;;;;5091053;28;20025;-55
2022/06/23 09:45:03;;;;;;;19.05;4.05;;;25.70;99.90;;;;;;5091500;28;20030;-55
2022/06/23 09:48:08;;;;;;;12.75;3.65;;;25.50;99.90;;;;;;5091486;28;20028;-53
2022/06/23 09:50:51;;;;;;;19.38;3.97;;;25.70;99.90;;;;;;5091574;28;20028;-56
2022/06/23 09:53:17;;;;;;;;;;;25.60;99.90;;;;;;5091387;28;20031;-55
2022/06/23 09:56:21;;;;;;;5.22;2.80;;;25.60;99.90;;;;;;5091253;28;19964;-51
2022/06/23 09:59:15;;;;;;;11.07;4.25;;;25.90;99.90;;;;;;5091401;28;20107;-56
2022/06/23 10:02:26;;;;;;;12.20;4.03;;;26.30;99.90;;;;;;5083868;28;20035;-54
2022/06/23 10:05:14;;;;;;;9.90;3.15;;;26.30;99.90;;;;;;5079516;28;20020;-56
2022/06/23 10:08:08;;;;;;;6.80;3.33;;;26.30;99.90;;;;;;5083489;28;20063;-54
2022/06/23 10:11:01;;;;;;;9.48;3.85;;;26.20;99.90;;;;;;5084703;28;20039;-54
2022/06/23 10:14:05;;;;;;;10.05;3.45;;;26.00;99.90;;;;;;5084680;28;20092;-54
2022/06/23 10:16:52;;;;;;;10.07;3.35;;;25.50;99.90;;;;;;5088894;28;20038;-54
2022/06/23 10:19:32;;;;;;;14.32;3.35;;;26.00;99.90;;;;;;5093635;28;20639;-56
2022/06/23 10:22:15;;;;;;;9.73;2.80;;;26.60;99.90;;;;;;5092769;28;20016;-55
2022/06/23 10:24:47;;;;;;;10.77;2.90;;;27.10;99.90;;;;;;5093881;28;20513;-53
2022/06/23 10:27:48;;;;;;;9.65;2.92;;;27.40;99.10;;;;;;5093580;28;20028;-54
2022/06/23 10:30:25;;;;;;;8.70;2.65;;;26.60;99.00;;;;;;5093776;28;20028;-55
2022/06/23 10:33:04;;;;;;;10.30;2.38;;;26.40;99.90;;;;;;5093860;28;20020;-53
2022/06/23 10:35:39;;;;;;;10.05;2.40;;;26.50;99.30;;;;;;5093596;28;20028;-55
2022/06/23 10:38:14;;;;;;;7.45;2.38;;;26.80;99.40;;;;;;5093929;28;20088;-55
2022/06/23 10:41:01;;;;;;;11.82;2.15;;;27.10;97.60;;;;;;5093536;28;20044;-54
2022/06/23 10:43:47;;;;;;;6.68;1.70;;;27.30;95.60;;;;;;5093700;28;20034;-55
2022/06/23 10:46:14;;;;;;;12.05;2.50;;;27.60;95.50;;;;;;5093339;28;20024;-54
2022/06/23 10:49:12;;;;;;;8.98;2.67;;;27.70;96.20;;;;;;5093480;28;20396;-54
2022/06/23 10:51:56;;;;;;;13.07;3.30;;;28.00;96.60;;;;;;5092901;28;20365;-52
2022/06/23 10:54:30;;;;;;;6.22;2.63;;;28.30;94.90;;;;;;5092961;28;20024;-54
2022/06/23 10:57:30;;;;;;;7.80;2.83;;;28.40;94.80;;;;;;5093092;28;20036;-55
2022/06/23 11:00:07;;;;;;;6.65;2.70;;;28.80;95.10;;;;;;5093417;28;20066;-56
2022/06/23 11:02:56;;;;;;;9.30;2.33;;;29.20;95.20;;;;;;5093287;28;20024;-56
2022/06/23 11:05:53;;;;;;;12.45;2.75;;;29.30;94.40;;;;;;5092883;28;20608;-55
2022/06/23 11:08:25;;;;;;;6.82;2.45;;;29.50;93.90;;;;;;5093406;28;20043;-55
2022/06/23 11:11:28;;;;;;;10.57;2.67;;;29.70;93.20;;;;;;5094009;28;20060;-56
2022/06/23 11:14:02;;;;;;;12.55;2.60;;;29.40;91.80;;;;;;5094349;28;20027;-55
2022/06/23 11:16:31;;;;;;;9.73;2.30;;;29.50;93.40;;;;;;5093295;28;20024;-55
2022/06/23 11:19:36;;;;;;;9.40;2.33;;;29.70;93.00;;;;;;5094164;28;20027;-55
2022/06/23 11:22:16;;;;;;;7.68;2.55;;;29.60;92.00;;;;;;5087248;28;20032;-55
2022/06/23 11:24:57;;;;;;;11.05;2.60;;;29.70;93.40;;;;;;5094001;28;20020;-57
2022/06/23 11:28:00;;;;;;;13.50;3.03;;;29.70;93.50;;;;;;5084504;28;20032;-54
2022/06/23 11:30:25;;;;;;;14.73;2.97;;;29.80;93.00;;;;;;5083421;28;20495;-54
2022/06/23 11:33:18;;;;;;;9.50;2.88;;;29.80;92.80;;;;;;5082723;28;20081;-55
2022/06/23 11:35:56;;;;;;;7.38;2.97;;;30.10;92.40;;;;;;5083445;28;20039;-55
2022/06/23 11:38:33;;;;;;;12.32;3.30;;;29.70;90.50;;;;;;5082742;28;20453;-55
2022/06/23 11:41:29;;;;;;;10.50;3.10;;;29.30;91.30;;;;;;5081337;28;20127;-55
2022/06/23 11:44:20;;;;;;;13.13;2.70;;;29.30;92.30;;;;;;5063244;28;20058;-54
2022/06/23 11:46:58;;;;;;;21.25;3.53;;;29.20;92.30;;;;;;5082383;28;20047;-55
2022/06/23 11:49:38;;;;;;;12.65;3.80;;;29.20;92.60;;;;;;5083318;28;20387;-55
2022/06/23 11:52:15;;;;;;;15.50;3.22;;;29.50;94.10;;;;;;5083183;28;20035;-55
2022/06/23 11:55:03;;;;;;;10.90;3.63;;;29.70;92.30;;;;;;5082384;28;20506;-55
2022/06/23 11:57:47;;;;;;;12.75;4.18;;;29.80;91.50;;;;;;5082519;28;20040;-53
2022/06/23 12:00:19;;;;;;;12.10;3.40;;;30.40;90.70;;;;;;5081707;28;20487;-56
2022/06/23 12:02:54;;;;;;;11.60;3.15;;;30.40;89.30;;;;;;5080807;28;20054;-54
2022/06/23 12:05:38;;;;;;;15.63;3.58;;;30.50;90.70;;;;;;5081528;28;20110;-55
2022/06/23 12:08:06;;;;;;;9.43;3.45;;;30.60;90.10;;;;;;5081818;28;20032;-55
2022/06/23 12:10:35;;;;;;;14.75;3.05;;;30.50;89.60;;;;;;5072637;28;20064;-56
2022/06/23 12:13:02;;;;;;;13.48;2.95;;;30.50;90.30;;;;;;5063621;28;20032;-55
2022/06/23 12:15:34;;;;;;;11.23;3.58;;;30.40;87.10;;;;;;5081366;28;20104;-55
2022/06/23 12:18:08;;;;;;;16.92;3.83;;;30.60;90.70;;;;;;5081989;28;20024;-55
2022/06/23 12:21:17;;;;;;;13.77;3.58;;;31.00;89.50;;;;;;5092279;28;20028;-57
2022/06/23 12:23:56;;;;;;;12.38;2.95;;;31.00;84.10;;;;;;5088842;28;20077;-57
2022/06/23 12:26:27;;;;;;;16.02;3.95;;;31.80;86.40;;;;;;5092176;28;20103;-57
2022/06/23 12:29:32;;;;;;;12.77;4.15;;;32.60;83.80;;;;;;5092735;28;20024;-58
2022/06/23 12:32:06;;;;;;;9.88;3.00;;;32.30;81.00;;;;;;5092518;28;20051;-57
2022/06/23 12:34:36;;;;;;;12.73;4.30;;;31.90;85.30;;;;;;5091929;28;20028;-57
2022/06/23 12:37:02;;;;;;;10.75;2.97;;;32.50;80.00;;;;;;5092534;28;20459;-58
2022/06/23 12:39:41;;;;;;;11.57;2.70;;;32.60;78.80;;;;;;5092098;28;20055;-58
2022/06/23 12:42:33;;;;;;;5.47;2.60;;;33.10;77.30;;;;;;5092562;28;20113;-58
2022/06/23 12:45:21;;;;;;;16.65;3.33;;;34.30;73.50;;;;;;5089330;28;20464;-58
2022/06/23 12:48:06;;;;;;;8.80;2.40;;;34.40;70.10;;;;;;5092443;28;20112;-54
2022/06/23 12:51:09;;;;;;;15.82;2.92;;;35.30;72.10;;;;;;5092515;28;20012;-55
2022/06/23 12:53:56;;;;;;;12.63;2.63;;;34.60;66.60;;;;;;5091990;28;20021;-59
2022/06/23 12:56:41;;;;;;;12.77;2.50;;;34.20;66.40;;;;;;5092012;28;20102;-58
2022/06/23 12:59:10;;;;;;;9.57;2.63;;;34.50;67.40;;;;;;5090746;28;20077;-57
2022/06/23 13:01:48;;;;;;;8.07;2.80;;;34.60;68.50;;;;;;5092487;28;20024;-57
2022/06/23 13:04:26;;;;;;;11.30;2.50;;;34.20;70.00;;;;;;5090403;28;20015;-58
2022/06/23 13:06:59;;;;;;;11.73;2.63;;;34.30;69.20;;;;;;5092407;28;20036;-58
2022/06/23 13:09:44;;;;;;;12.63;2.92;;;35.10;66.10;;;;;;5091895;28;20020;-58
2022/06/23 13:12:27;;;;;;;8.55;2.30;;;35.10;65.40;;;;;;5090687;28;20111;-58
2022/06/23 13:15:02;;;;;;;7.50;2.65;;;35.90;63.60;;;;;;5091895;28;20023;-58
2022/06/23 13:18:00;;;;;;;8.98;1.92;;;35.70;62.30;;;;;;5092043;28;20686;-57
2022/06/23 13:20:26;;;;;;;9.32;2.17;;;35.90;61.70;;;;;;5091477;28;20028;-58
2022/06/23 13:23:03;;;;;;;4.70;1.98;;;35.90;58.40;;;;;;5091851;28;20535;-58
2022/06/23 13:25:33;;;;;;;8.10;2.15;;;35.20;60.80;;;;;;5091617;28;20040;-59
2022/06/23 13:28:00;;;;;;;6.15;1.83;;;35.90;60.80;;;;;;5091974;28;20024;-58
2022/06/23 13:30:30;;;;;;;6.00;2.42;;;35.80;59.50;;;;;;5091546;28;20016;-58
2022/06/23 13:33:26;;;;;;;6.00;2.33;;;36.10;61.30;;;;;;5091919;28;20028;-58
2022/06/23 13:36:06;;;;;;;5.93;2.20;;;36.70;60.80;;;;;;5086919;28;20044;-59
2022/06/23 13:38:46;;;;;;;8.77;2.25;;;36.70;58.60;;;;;;5091746;28;20024;-59
2022/06/23 13:41:21;;;;;;;9.63;2.33;;;36.50;60.30;;;;;;5091286;28;20043;-58